sensor_id;sensor_type;location;lat;lon;timestamp;pressure;altitude;pressure_sealevel;temperature;humidity
37710;BME280;60223;34.854;-92.408;2023-02-22T00:01:59;99383.50;;;21.03;33.34
37710;BME280;60223;34.854;-92.408;2023-02-22T00:04:25;99386.66;;;21.43;32.95
37710;BME280;60223;34.854;-92.408;2023-02-22T00:06:49;99384.20;;;20.76;33.39
37710;BME280;60223;34.854;-92.408;2023-02-22T00:09:14;99386.13;;;21.00;33.50
37710;BME280;60223;34.854;-92.408;2023-02-22T00:11:46;99387.16;;;21.45;32.93
37710;BME280;60223;34.854;-92.408;2023-02-22T00:14:07;99384.31;;;21.14;33.29
37710;BME280;60223;34.854;-92.408;2023-02-22T00:16:33;99381.57;;;21.43;33.39
37710;BME280;60223;34.854;-92.408;2023-02-22T00:18:59;99381.15;;;21.03;33.55
37710;BME280;60223;34.854;-92.408;2023-02-22T00:21:25;99375.97;;;21.76;32.76
37710;BME280;60223;34.854;-92.408;2023-02-22T00:23:49;99372.20;;;20.38;34.00
37710;BME280;60223;34.854;-92.408;2023-02-22T00:26:17;99376.34;;;21.01;33.89
37710;BME280;60223;34.854;-92.408;2023-02-22T00:28:41;99378.48;;;21.31;33.58
37710;BME280;60223;34.854;-92.408;2023-02-22T00:31:07;99373.16;;;21.28;33.28
37710;BME280;60223;34.854;-92.408;2023-02-22T00:33:32;99368.90;;;21.10;33.49
37710;BME280;60223;34.854;-92.408;2023-02-22T00:35:58;99370.88;;;20.84;33.78
37710;BME280;60223;34.854;-92.408;2023-02-22T00:38:24;99371.30;;;20.61;34.08
37710;BME280;60223;34.854;-92.408;2023-02-22T00:40:46;99369.24;;;21.00;33.67
37710;BME280;60223;34.854;-92.408;2023-02-22T00:43:15;99368.70;;;21.14;33.51
37710;BME280;60223;34.854;-92.408;2023-02-22T00:45:40;99363.38;;;21.46;33.26
37710;BME280;60223;34.854;-92.408;2023-02-22T00:48:08;99359.07;;;21.74;33.20
37710;BME280;60223;34.854;-92.408;2023-02-22T00:50:33;99356.36;;;21.34;33.39
37710;BME280;60223;34.854;-92.408;2023-02-22T00:52:58;99351.67;;;21.09;33.70
37710;BME280;60223;34.854;-92.408;2023-02-22T00:55:25;99352.27;;;20.61;34.33
37710;BME280;60223;34.854;-92.408;2023-02-22T00:57:49;99346.83;;;21.24;33.85
37710;BME280;60223;34.854;-92.408;2023-02-22T01:00:15;99347.45;;;20.76;34.12
37710;BME280;60223;34.854;-92.408;2023-02-22T01:02:41;99341.12;;;20.96;33.97
37710;BME280;60223;34.854;-92.408;2023-02-22T01:05:06;99338.39;;;21.41;33.41
37710;BME280;60223;34.854;-92.408;2023-02-22T01:07:31;99334.36;;;20.98;33.91
37710;BME280;60223;34.854;-92.408;2023-02-22T01:09:57;99333.30;;;21.21;33.91
37710;BME280;60223;34.854;-92.408;2023-02-22T01:12:23;99322.60;;;21.08;33.87
37710;BME280;60223;34.854;-92.408;2023-02-22T01:14:49;99312.39;;;21.10;34.17
37710;BME280;60223;34.854;-92.408;2023-02-22T01:17:14;99308.26;;;21.34;33.86
37710;BME280;60223;34.854;-92.408;2023-02-22T01:19:37;99303.59;;;20.27;34.89
37710;BME280;60223;34.854;-92.408;2023-02-22T01:22:05;99302.35;;;21.23;34.02
37710;BME280;60223;34.854;-92.408;2023-02-22T01:24:31;99291.57;;;21.00;34.34
37710;BME280;60223;34.854;-92.408;2023-02-22T01:26:56;99290.31;;;21.59;33.55
37710;BME280;60223;34.854;-92.408;2023-02-22T01:29:22;99289.52;;;20.88;34.44
37710;BME280;60223;34.854;-92.408;2023-02-22T01:31:53;99279.72;;;21.02;34.36
37710;BME280;60223;34.854;-92.408;2023-02-22T01:34:14;99274.43;;;21.77;33.47
37710;BME280;60223;34.854;-92.408;2023-02-22T01:36:39;99276.00;;;20.50;34.69
37710;BME280;60223;34.854;-92.408;2023-02-22T01:39:05;99272.26;;;21.49;33.85
37710;BME280;60223;34.854;-92.408;2023-02-22T01:41:30;99276.02;;;20.90;34.30
37710;BME280;60223;34.854;-92.408;2023-02-22T01:43:53;99277.99;;;20.91;34.25
37710;BME280;60223;34.854;-92.408;2023-02-22T01:46:24;99276.30;;;20.88;34.32
37710;BME280;60223;34.854;-92.408;2023-02-22T02:05:47;99272.83;;;21.49;33.82
37710;BME280;60223;34.854;-92.408;2023-02-22T02:08:18;99275.99;;;21.09;34.23
37710;BME280;60223;34.854;-92.408;2023-02-22T02:10:36;99268.43;;;20.20;34.88
37710;BME280;60223;34.854;-92.408;2023-02-22T02:13:04;99262.95;;;21.40;33.72
37710;BME280;60223;34.854;-92.408;2023-02-22T02:15:31;99259.17;;;21.55;33.15
37710;BME280;60223;34.854;-92.408;2023-02-22T02:17:57;99255.15;;;21.57;33.08
37710;BME280;60223;34.854;-92.408;2023-02-22T02:20:26;99252.47;;;21.36;33.39
37710;BME280;60223;34.854;-92.408;2023-02-22T02:22:51;99251.46;;;21.79;33.02
37710;BME280;60223;34.854;-92.408;2023-02-22T02:25:38;99252.95;;;21.23;33.48
37710;BME280;60223;34.854;-92.408;2023-02-22T02:27:51;99250.05;;;21.51;33.40
37710;BME280;60223;34.854;-92.408;2023-02-22T02:30:15;99249.93;;;21.30;33.70
37710;BME280;60223;34.854;-92.408;2023-02-22T02:32:35;99250.38;;;21.19;33.80
37710;BME280;60223;34.854;-92.408;2023-02-22T02:35:01;99242.53;;;21.93;33.15
37710;BME280;60223;34.854;-92.408;2023-02-22T02:37:20;99234.69;;;21.76;33.15
37710;BME280;60223;34.854;-92.408;2023-02-22T02:39:52;99233.85;;;21.09;33.64
37710;BME280;60223;34.854;-92.408;2023-02-22T02:42:15;99237.45;;;21.70;33.51
37710;BME280;60223;34.854;-92.408;2023-02-22T02:44:40;99242.26;;;21.37;33.56
37710;BME280;60223;34.854;-92.408;2023-02-22T02:47:04;99232.32;;;21.54;33.38
37710;BME280;60223;34.854;-92.408;2023-02-22T02:49:33;99220.98;;;21.59;33.01
37710;BME280;60223;34.854;-92.408;2023-02-22T02:51:56;99214.59;;;21.67;33.15
37710;BME280;60223;34.854;-92.408;2023-02-22T02:54:19;99212.12;;;21.91;32.91
37710;BME280;60223;34.854;-92.408;2023-02-22T02:56:46;99221.90;;;21.29;33.57
37710;BME280;60223;34.854;-92.408;2023-02-22T02:59:23;99219.73;;;22.70;32.06
37710;BME280;60223;34.854;-92.408;2023-02-22T03:01:47;99220.74;;;23.11;30.96
37710;BME280;60223;34.854;-92.408;2023-02-22T03:04:15;99217.59;;;23.46;30.91
37710;BME280;60223;34.854;-92.408;2023-02-22T03:06:49;99212.50;;;24.40;29.74
37710;BME280;60223;34.854;-92.408;2023-02-22T03:09:01;99210.80;;;24.19;30.01
37710;BME280;60223;34.854;-92.408;2023-02-22T03:11:20;99214.22;;;25.74;28.61
37710;BME280;60223;34.854;-92.408;2023-02-22T03:13:52;99219.61;;;25.99;28.27
37710;BME280;60223;34.854;-92.408;2023-02-22T03:16:19;99211.39;;;25.31;28.26
37710;BME280;60223;34.854;-92.408;2023-02-22T03:18:40;99220.21;;;26.02;27.73
37710;BME280;60223;34.854;-92.408;2023-02-22T03:21:06;99226.04;;;26.14;27.62
37710;BME280;60223;34.854;-92.408;2023-02-22T03:23:32;99217.89;;;26.02;27.72
37710;BME280;60223;34.854;-92.408;2023-02-22T03:25:57;99223.31;;;23.32;30.50
37710;BME280;60223;34.854;-92.408;2023-02-22T03:28:22;99215.74;;;24.33;29.58
37710;BME280;60223;34.854;-92.408;2023-02-22T03:30:49;99210.98;;;24.07;29.75
37710;BME280;60223;34.854;-92.408;2023-02-22T03:33:10;99215.31;;;24.85;28.70
37710;BME280;60223;34.854;-92.408;2023-02-22T03:35:39;99213.19;;;24.84;28.68
37710;BME280;60223;34.854;-92.408;2023-02-22T03:38:05;99212.77;;;25.05;28.47
37710;BME280;60223;34.854;-92.408;2023-02-22T03:40:30;99194.91;;;26.01;27.92
37710;BME280;60223;34.854;-92.408;2023-02-22T03:42:55;99204.30;;;25.80;27.61
37710;BME280;60223;34.854;-92.408;2023-02-22T03:45:20;99192.62;;;25.67;27.72
37710;BME280;60223;34.854;-92.408;2023-02-22T03:47:45;99187.10;;;25.73;27.87
37710;BME280;60223;34.854;-92.408;2023-02-22T03:50:11;99195.85;;;24.08;29.20
37710;BME280;60223;34.854;-92.408;2023-02-22T03:52:35;99194.80;;;23.90;29.51
37710;BME280;60223;34.854;-92.408;2023-02-22T03:55:00;99189.96;;;25.65;27.98
37710;BME280;60223;34.854;-92.408;2023-02-22T03:57:31;99187.23;;;24.54;28.77
37710;BME280;60223;34.854;-92.408;2023-02-22T03:59:53;99189.11;;;24.13;29.20
37710;BME280;60223;34.854;-92.408;2023-02-22T04:02:17;99187.57;;;24.67;28.60
37710;BME280;60223;34.854;-92.408;2023-02-22T04:04:44;99191.58;;;24.69;28.56
37710;BME280;60223;34.854;-92.408;2023-02-22T04:07:10;99186.01;;;24.78;28.51
37710;BME280;60223;34.854;-92.408;2023-02-22T04:09:35;99188.68;;;24.40;28.92
37710;BME280;60223;34.854;-92.408;2023-02-22T04:12:00;99188.77;;;24.38;28.97
37710;BME280;60223;34.854;-92.408;2023-02-22T04:14:26;99186.39;;;23.97;29.50
37710;BME280;60223;34.854;-92.408;2023-02-22T04:16:52;99192.49;;;24.00;29.25
37710;BME280;60223;34.854;-92.408;2023-02-22T04:19:18;99189.89;;;24.81;28.67
37710;BME280;60223;34.854;-92.408;2023-02-22T04:21:45;99180.34;;;24.81;28.40
37710;BME280;60223;34.854;-92.408;2023-02-22T04:24:09;99178.37;;;25.78;27.95
37710;BME280;60223;34.854;-92.408;2023-02-22T04:26:34;99183.20;;;24.96;28.34
37710;BME280;60223;34.854;-92.408;2023-02-22T04:29:00;99170.39;;;25.48;27.91
37710;BME280;60223;34.854;-92.408;2023-02-22T04:31:26;99177.67;;;25.27;28.06
37710;BME280;60223;34.854;-92.408;2023-02-22T04:33:52;99179.58;;;25.05;28.29
37710;BME280;60223;34.854;-92.408;2023-02-22T04:36:18;99175.70;;;24.67;28.47
37710;BME280;60223;34.854;-92.408;2023-02-22T04:38:44;99172.59;;;24.36;28.98
37710;BME280;60223;34.854;-92.408;2023-02-22T04:41:09;99167.73;;;24.31;29.05
37710;BME280;60223;34.854;-92.408;2023-02-22T04:43:35;99171.38;;;24.10;29.03
37710;BME280;60223;34.854;-92.408;2023-02-22T04:46:00;99172.03;;;24.33;29.03
37710;BME280;60223;34.854;-92.408;2023-02-22T04:48:25;99172.95;;;24.43;28.92
37710;BME280;60223;34.854;-92.408;2023-02-22T04:50:51;99173.61;;;24.44;28.90
37710;BME280;60223;34.854;-92.408;2023-02-22T04:53:17;99181.89;;;24.65;28.69
37710;BME280;60223;34.854;-92.408;2023-02-22T04:55:43;99168.60;;;24.32;29.25
37710;BME280;60223;34.854;-92.408;2023-02-22T04:58:08;99182.42;;;24.76;29.02
37710;BME280;60223;34.854;-92.408;2023-02-22T05:00:31;99169.80;;;24.52;29.04
37710;BME280;60223;34.854;-92.408;2023-02-22T05:02:57;99171.92;;;24.45;28.86
37710;BME280;60223;34.854;-92.408;2023-02-22T05:05:25;99172.85;;;24.46;28.81
37710;BME280;60223;34.854;-92.408;2023-02-22T05:07:50;99170.94;;;24.53;28.98
37710;BME280;60223;34.854;-92.408;2023-02-22T05:10:17;99169.67;;;24.07;29.18
37710;BME280;60223;34.854;-92.408;2023-02-22T05:12:42;99177.42;;;24.37;28.93
37710;BME280;60223;34.854;-92.408;2023-02-22T05:15:08;99185.05;;;24.14;29.12
37710;BME280;60223;34.854;-92.408;2023-02-22T05:17:32;99182.68;;;24.47;29.06
37710;BME280;60223;34.854;-92.408;2023-02-22T05:19:58;99173.51;;;24.25;29.29
37710;BME280;60223;34.854;-92.408;2023-02-22T05:24:50;99185.06;;;24.52;28.82
37710;BME280;60223;34.854;-92.408;2023-02-22T05:27:14;99187.14;;;24.04;29.02
37710;BME280;60223;34.854;-92.408;2023-02-22T05:29:41;99191.53;;;24.52;29.01
37710;BME280;60223;34.854;-92.408;2023-02-22T05:32:06;99190.60;;;24.34;28.95
37710;BME280;60223;34.854;-92.408;2023-02-22T05:34:31;99195.15;;;24.36;29.16
37710;BME280;60223;34.854;-92.408;2023-02-22T05:36:58;99193.30;;;24.19;29.07
37710;BME280;60223;34.854;-92.408;2023-02-22T05:39:23;99198.49;;;24.05;29.18
37710;BME280;60223;34.854;-92.408;2023-02-22T05:41:49;99196.09;;;24.06;29.16
37710;BME280;60223;34.854;-92.408;2023-02-22T05:44:14;99199.71;;;24.37;29.09
37710;BME280;60223;34.854;-92.408;2023-02-22T05:46:38;99200.64;;;24.09;29.09
37710;BME280;60223;34.854;-92.408;2023-02-22T05:49:06;99204.77;;;24.11;29.30
37710;BME280;60223;34.854;-92.408;2023-02-22T05:51:31;99208.38;;;24.47;28.94
37710;BME280;60223;34.854;-92.408;2023-02-22T05:53:57;99212.61;;;24.61;29.04
37710;BME280;60223;34.854;-92.408;2023-02-22T05:56:25;99210.27;;;24.13;29.01
37710;BME280;60223;34.854;-92.408;2023-02-22T05:58:49;99213.75;;;24.48;28.93
37710;BME280;60223;34.854;-92.408;2023-02-22T06:01:12;99215.91;;;24.20;28.98
37710;BME280;60223;34.854;-92.408;2023-02-22T06:03:39;99205.24;;;24.32;28.83
37710;BME280;60223;34.854;-92.408;2023-02-22T06:06:05;99208.35;;;24.41;28.76
37710;BME280;60223;34.854;-92.408;2023-02-22T06:08:31;99208.95;;;24.33;29.03
37710;BME280;60223;34.854;-92.408;2023-02-22T06:10:56;99204.77;;;24.31;28.82
37710;BME280;60223;34.854;-92.408;2023-02-22T06:13:22;99203.04;;;24.42;28.91
37710;BME280;60223;34.854;-92.408;2023-02-22T06:15:48;99212.23;;;24.38;28.71
37710;BME280;60223;34.854;-92.408;2023-02-22T06:18:14;99202.61;;;24.88;28.67
37710;BME280;60223;34.854;-92.408;2023-02-22T06:20:40;99204.85;;;24.64;28.91
37710;BME280;60223;34.854;-92.408;2023-02-22T06:23:05;99201.59;;;24.56;28.99
37710;BME280;60223;34.854;-92.408;2023-02-22T06:25:31;99196.85;;;24.25;29.03
37710;BME280;60223;34.854;-92.408;2023-02-22T06:27:56;99192.21;;;24.38;28.69
37710;BME280;60223;34.854;-92.408;2023-02-22T06:30:24;99204.63;;;24.74;28.80
37710;BME280;60223;34.854;-92.408;2023-02-22T06:32:51;99199.86;;;24.19;28.84
37710;BME280;60223;34.854;-92.408;2023-02-22T06:35:13;99209.28;;;24.24;28.79
37710;BME280;60223;34.854;-92.408;2023-02-22T06:37:39;99208.04;;;23.93;29.08
37710;BME280;60223;34.854;-92.408;2023-02-22T06:40:05;99211.35;;;23.99;29.03
37710;BME280;60223;34.854;-92.408;2023-02-22T06:42:29;99206.04;;;24.43;29.07
37710;BME280;60223;34.854;-92.408;2023-02-22T06:44:56;99214.48;;;23.86;29.14
37710;BME280;60223;34.854;-92.408;2023-02-22T06:47:21;99217.88;;;24.55;28.92
37710;BME280;60223;34.854;-92.408;2023-02-22T06:49:51;99209.80;;;24.34;29.16
37710;BME280;60223;34.854;-92.408;2023-02-22T06:52:12;99211.01;;;24.28;28.95
37710;BME280;60223;34.854;-92.408;2023-02-22T06:54:39;99210.68;;;24.31;28.95
37710;BME280;60223;34.854;-92.408;2023-02-22T06:57:04;99216.75;;;24.39;29.08
37710;BME280;60223;34.854;-92.408;2023-02-22T06:59:29;99219.37;;;24.19;29.04
37710;BME280;60223;34.854;-92.408;2023-02-22T07:01:51;99206.64;;;24.40;28.87
37710;BME280;60223;34.854;-92.408;2023-02-22T07:04:21;99220.26;;;24.24;29.23
37710;BME280;60223;34.854;-92.408;2023-02-22T07:06:46;99223.99;;;24.21;29.28
37710;BME280;60223;34.854;-92.408;2023-02-22T07:09:12;99226.31;;;24.23;29.01
37710;BME280;60223;34.854;-92.408;2023-02-22T07:11:39;99231.18;;;24.58;28.89
37710;BME280;60223;34.854;-92.408;2023-02-22T07:14:03;99244.86;;;24.60;28.88
37710;BME280;60223;34.854;-92.408;2023-02-22T07:16:27;99238.48;;;24.55;28.95
37710;BME280;60223;34.854;-92.408;2023-02-22T07:18:55;99242.36;;;24.54;28.96
37710;BME280;60223;34.854;-92.408;2023-02-22T07:21:20;99233.93;;;24.27;29.00
37710;BME280;60223;34.854;-92.408;2023-02-22T07:23:51;99225.93;;;24.21;29.05
37710;BME280;60223;34.854;-92.408;2023-02-22T07:26:10;99229.68;;;24.41;29.10
37710;BME280;60223;34.854;-92.408;2023-02-22T07:28:37;99229.16;;;24.30;29.00
37710;BME280;60223;34.854;-92.408;2023-02-22T07:31:03;99236.39;;;24.55;28.96
37710;BME280;60223;34.854;-92.408;2023-02-22T07:33:29;99228.13;;;24.41;29.11
37710;BME280;60223;34.854;-92.408;2023-02-22T07:35:53;99220.05;;;24.24;29.28
37710;BME280;60223;34.854;-92.408;2023-02-22T07:38:20;99220.68;;;24.06;29.22
37710;BME280;60223;34.854;-92.408;2023-02-22T07:40:44;99223.25;;;24.32;29.18
37710;BME280;60223;34.854;-92.408;2023-02-22T07:43:14;99213.81;;;24.34;29.19
37710;BME280;60223;34.854;-92.408;2023-02-22T07:45:37;99206.43;;;24.34;29.19
37710;BME280;60223;34.854;-92.408;2023-02-22T07:48:02;99214.99;;;23.86;29.43
37710;BME280;60223;34.854;-92.408;2023-02-22T07:50:29;99213.65;;;24.21;29.34
37710;BME280;60223;34.854;-92.408;2023-02-22T07:52:55;99208.36;;;24.21;29.08
37710;BME280;60223;34.854;-92.408;2023-02-22T07:55:19;99193.15;;;24.27;29.27
37710;BME280;60223;34.854;-92.408;2023-02-22T07:57:44;99202.47;;;24.11;29.44
37710;BME280;60223;34.854;-92.408;2023-02-22T08:00:09;99198.37;;;24.07;29.25
37710;BME280;60223;34.854;-92.408;2023-02-22T08:02:35;99198.07;;;24.40;29.18
37710;BME280;60223;34.854;-92.408;2023-02-22T08:05:01;99184.81;;;24.20;29.36
37710;BME280;60223;34.854;-92.408;2023-02-22T08:07:26;99186.53;;;24.16;29.42
37710;BME280;60223;34.854;-92.408;2023-02-22T08:09:53;99179.35;;;24.16;29.41
37710;BME280;60223;34.854;-92.408;2023-02-22T08:12:18;99172.50;;;24.15;29.45
37710;BME280;60223;34.854;-92.408;2023-02-22T08:14:43;99186.12;;;24.18;29.42
37710;BME280;60223;34.854;-92.408;2023-02-22T08:17:07;99190.85;;;24.47;29.35
37710;BME280;60223;34.854;-92.408;2023-02-22T08:19:35;99175.81;;;23.93;29.45
37710;BME280;60223;34.854;-92.408;2023-02-22T08:21:59;99178.56;;;24.22;29.39
37710;BME280;60223;34.854;-92.408;2023-02-22T08:24:26;99177.86;;;24.02;29.60
37710;BME280;60223;34.854;-92.408;2023-02-22T08:26:52;99166.06;;;23.67;29.46
37710;BME280;60223;34.854;-92.408;2023-02-22T08:29:17;99167.83;;;24.00;29.38
37710;BME280;60223;34.854;-92.408;2023-02-22T08:31:40;99161.46;;;23.53;29.61
37710;BME280;60223;34.854;-92.408;2023-02-22T08:34:09;99165.12;;;24.18;29.46
37710;BME280;60223;34.854;-92.408;2023-02-22T08:36:35;99152.77;;;24.08;29.57
37710;BME280;60223;34.854;-92.408;2023-02-22T08:38:58;99148.26;;;23.58;29.59
37710;BME280;60223;34.854;-92.408;2023-02-22T08:41:24;99147.65;;;23.98;29.66
37710;BME280;60223;34.854;-92.408;2023-02-22T08:43:49;99142.85;;;24.23;29.43
37710;BME280;60223;34.854;-92.408;2023-02-22T08:46:19;99137.12;;;24.04;29.60
37710;BME280;60223;34.854;-92.408;2023-02-22T08:48:48;99132.66;;;23.66;29.53
37710;BME280;60223;34.854;-92.408;2023-02-22T08:51:09;99131.00;;;23.98;29.65
37710;BME280;60223;34.854;-92.408;2023-02-22T08:53:34;99130.06;;;24.21;29.44
37710;BME280;60223;34.854;-92.408;2023-02-22T08:55:56;99141.86;;;24.10;29.56
37710;BME280;60223;34.854;-92.408;2023-02-22T08:58:25;99121.28;;;24.02;29.64
37710;BME280;60223;34.854;-92.408;2023-02-22T09:00:50;99119.59;;;23.91;29.51
37710;BME280;60223;34.854;-92.408;2023-02-22T09:03:17;99124.54;;;23.91;29.80
37710;BME280;60223;34.854;-92.408;2023-02-22T09:05:41;99118.94;;;23.96;29.75
37710;BME280;60223;34.854;-92.408;2023-02-22T09:08:08;99118.90;;;23.91;29.79
37710;BME280;60223;34.854;-92.408;2023-02-22T09:10:33;99117.37;;;24.09;29.63
37710;BME280;60223;34.854;-92.408;2023-02-22T09:20:18;99119.98;;;24.03;29.75
37710;BME280;60223;34.854;-92.408;2023-02-22T09:22:40;99122.85;;;23.94;29.88
37710;BME280;60223;34.854;-92.408;2023-02-22T09:25:06;99118.11;;;23.79;30.01
37710;BME280;60223;34.854;-92.408;2023-02-22T09:27:33;99128.46;;;24.10;29.69
37710;BME280;60223;34.854;-92.408;2023-02-22T09:29:58;99123.24;;;23.85;29.93
37710;BME280;60223;34.854;-92.408;2023-02-22T09:32:24;99113.78;;;23.89;29.91
37710;BME280;60223;34.854;-92.408;2023-02-22T09:34:50;99103.25;;;23.84;29.96
37710;BME280;60223;34.854;-92.408;2023-02-22T09:37:15;99112.10;;;24.03;29.75
37710;BME280;60223;34.854;-92.408;2023-02-22T09:39:40;99111.23;;;23.72;29.84
37710;BME280;60223;34.854;-92.408;2023-02-22T09:42:10;99111.79;;;23.48;30.09
37710;BME280;60223;34.854;-92.408;2023-02-22T09:44:35;99119.26;;;23.77;30.06
37710;BME280;60223;34.854;-92.408;2023-02-22T09:46:57;99102.55;;;23.67;30.15
37710;BME280;60223;34.854;-92.408;2023-02-22T09:49:26;99114.17;;;23.71;30.11
37710;BME280;60223;34.854;-92.408;2023-02-22T09:51:49;99116.36;;;23.90;29.92
37710;BME280;60223;34.854;-92.408;2023-02-22T09:54:18;99107.82;;;23.82;29.98
37710;BME280;60223;34.854;-92.408;2023-02-22T09:56:40;99115.39;;;23.78;30.04
37710;BME280;60223;34.854;-92.408;2023-02-22T09:59:06;99114.82;;;23.71;30.14
37710;BME280;60223;34.854;-92.408;2023-02-22T10:01:35;99122.05;;;23.85;29.99
37710;BME280;60223;34.854;-92.408;2023-02-22T10:04:03;99128.70;;;23.76;30.08
37710;BME280;60223;34.854;-92.408;2023-02-22T10:06:24;99135.57;;;23.74;30.11
37710;BME280;60223;34.854;-92.408;2023-02-22T10:08:48;99136.67;;;23.83;30.03
37710;BME280;60223;34.854;-92.408;2023-02-22T10:11:22;99140.83;;;23.84;30.03
37710;BME280;60223;34.854;-92.408;2023-02-22T10:13:45;99140.75;;;23.68;30.20
37710;BME280;60223;34.854;-92.408;2023-02-22T10:16:10;99155.64;;;23.46;29.99
37710;BME280;60223;34.854;-92.408;2023-02-22T10:18:38;99163.28;;;24.06;30.06
37710;BME280;60223;34.854;-92.408;2023-02-22T10:21:00;99160.66;;;24.04;29.84
37710;BME280;60223;34.854;-92.408;2023-02-22T10:23:26;99164.43;;;23.67;30.20
37710;BME280;60223;34.854;-92.408;2023-02-22T10:25:49;99162.56;;;23.81;30.06
37710;BME280;60223;34.854;-92.408;2023-02-22T10:28:16;99165.09;;;23.67;30.20
37710;BME280;60223;34.854;-92.408;2023-02-22T10:30:40;99173.12;;;23.62;30.27
37710;BME280;60223;34.854;-92.408;2023-02-22T10:33:08;99163.69;;;23.74;30.14
37710;BME280;60223;34.854;-92.408;2023-02-22T10:35:55;99173.48;;;23.52;30.38
37710;BME280;60223;34.854;-92.408;2023-02-22T10:37:59;99172.92;;;23.39;30.28
37710;BME280;60223;34.854;-92.408;2023-02-22T10:40:23;99164.17;;;23.65;30.24
37710;BME280;60223;34.854;-92.408;2023-02-22T10:42:47;99162.75;;;23.51;30.41
37710;BME280;60223;34.854;-92.408;2023-02-22T10:45:19;99167.80;;;23.58;30.32
37710;BME280;60223;34.854;-92.408;2023-02-22T10:47:38;99178.54;;;23.37;30.29
37710;BME280;60223;34.854;-92.408;2023-02-22T10:50:04;99174.20;;;23.71;30.17
37710;BME280;60223;34.854;-92.408;2023-02-22T10:52:31;99178.35;;;23.23;30.46
37710;BME280;60223;34.854;-92.408;2023-02-22T10:54:54;99173.97;;;23.50;30.41
37710;BME280;60223;34.854;-92.408;2023-02-22T10:57:24;99171.44;;;23.63;30.29
37710;BME280;60223;34.854;-92.408;2023-02-22T10:59:48;99172.02;;;23.61;30.31
37710;BME280;60223;34.854;-92.408;2023-02-22T11:02:17;99166.08;;;24.06;30.08
37710;BME280;60223;34.854;-92.408;2023-02-22T11:04:44;99170.99;;;23.54;30.39
37710;BME280;60223;34.854;-92.408;2023-02-22T11:07:16;99179.70;;;23.56;30.37
37710;BME280;60223;34.854;-92.408;2023-02-22T11:09:28;99170.86;;;23.59;30.36
37710;BME280;60223;34.854;-92.408;2023-02-22T11:14:24;99191.16;;;23.48;30.46
37710;BME280;60223;34.854;-92.408;2023-02-22T11:16:47;99206.10;;;23.65;30.29
37710;BME280;60223;34.854;-92.408;2023-02-22T11:19:17;99203.37;;;23.48;30.45
37710;BME280;60223;34.854;-92.408;2023-02-22T11:21:35;99202.17;;;23.57;30.34
37710;BME280;60223;34.854;-92.408;2023-02-22T11:24:04;99199.45;;;23.76;30.38
37710;BME280;60223;34.854;-92.408;2023-02-22T11:26:26;99199.44;;;23.64;30.26
37710;BME280;60223;34.854;-92.408;2023-02-22T11:28:50;99189.12;;;23.43;30.47
37710;BME280;60223;34.854;-92.408;2023-02-22T11:31:20;99190.70;;;23.41;30.50
37710;BME280;60223;34.854;-92.408;2023-02-22T11:33:49;99198.16;;;23.41;30.47
37710;BME280;60223;34.854;-92.408;2023-02-22T11:36:09;99201.43;;;23.59;30.29
37710;BME280;60223;34.854;-92.408;2023-02-22T11:38:35;99212.29;;;23.53;30.38
37710;BME280;60223;34.854;-92.408;2023-02-22T11:41:11;99218.32;;;23.59;30.31
37710;BME280;60223;34.854;-92.408;2023-02-22T11:43:26;99217.87;;;23.48;30.40
37710;BME280;60223;34.854;-92.408;2023-02-22T11:46:00;99227.65;;;23.40;30.51
37710;BME280;60223;34.854;-92.408;2023-02-22T11:48:22;99229.13;;;23.48;30.43
37710;BME280;60223;34.854;-92.408;2023-02-22T11:50:52;99223.77;;;23.40;30.51
37710;BME280;60223;34.854;-92.408;2023-02-22T11:53:20;99227.22;;;23.78;30.38
37710;BME280;60223;34.854;-92.408;2023-02-22T11:55:35;99227.91;;;23.48;30.43
37710;BME280;60223;34.854;-92.408;2023-02-22T11:58:05;99233.39;;;23.38;30.55
37710;BME280;60223;34.854;-92.408;2023-02-22T12:00:32;99233.78;;;23.54;30.39
37710;BME280;60223;34.854;-92.408;2023-02-22T12:03:22;99230.86;;;23.95;29.91
37710;BME280;60223;34.854;-92.408;2023-02-22T12:05:24;99230.94;;;23.87;30.10
37710;BME280;60223;34.854;-92.408;2023-02-22T12:07:51;99222.53;;;24.57;29.59
37710;BME280;60223;34.854;-92.408;2023-02-22T12:10:17;99216.15;;;24.65;29.56
37710;BME280;60223;34.854;-92.408;2023-02-22T12:12:44;99225.48;;;24.85;29.34
37710;BME280;60223;34.854;-92.408;2023-02-22T12:15:06;99223.81;;;25.26;29.45
37710;BME280;60223;34.854;-92.408;2023-02-22T12:17:33;99223.36;;;24.60;29.91
37710;BME280;60223;34.854;-92.408;2023-02-22T12:19:52;99229.14;;;24.18;30.40
37710;BME280;60223;34.854;-92.408;2023-02-22T12:22:19;99231.59;;;24.12;30.42
37710;BME280;60223;34.854;-92.408;2023-02-22T12:24:45;99232.16;;;24.28;30.50
37710;BME280;60223;34.854;-92.408;2023-02-22T12:27:08;99244.47;;;24.48;30.34
37710;BME280;60223;34.854;-92.408;2023-02-22T12:29:35;99241.95;;;24.50;30.35
37710;BME280;60223;34.854;-92.408;2023-02-22T12:31:57;99257.26;;;25.04;29.85
37710;BME280;60223;34.854;-92.408;2023-02-22T12:34:29;99282.98;;;25.01;29.72
37710;BME280;60223;34.854;-92.408;2023-02-22T12:36:53;99298.12;;;25.01;30.05
37710;BME280;60223;34.854;-92.408;2023-02-22T12:39:23;99316.46;;;24.46;30.44
37710;BME280;60223;34.854;-92.408;2023-02-22T12:41:45;99330.13;;;24.92;30.51
37710;BME280;60223;34.854;-92.408;2023-02-22T12:44:10;99343.40;;;24.56;30.46
37710;BME280;60223;34.854;-92.408;2023-02-22T12:46:33;99333.98;;;24.62;30.43
37710;BME280;60223;34.854;-92.408;2023-02-22T12:49:02;99325.20;;;24.84;30.44
37710;BME280;60223;34.854;-92.408;2023-02-22T12:51:27;99341.39;;;24.59;30.46
37710;BME280;60223;34.854;-92.408;2023-02-22T12:53:52;99340.77;;;24.65;30.40
37710;BME280;60223;34.854;-92.408;2023-02-22T12:56:20;99349.40;;;24.70;30.36
37710;BME280;60223;34.854;-92.408;2023-02-22T12:58:42;99343.57;;;25.12;30.16
37710;BME280;60223;34.854;-92.408;2023-02-22T13:01:10;99349.23;;;25.50;29.81